createdAt,value
2023-02-28T00:01:32.375Z,95415.16
2023-02-28T00:03:59.274Z,95415.75
2023-02-28T00:06:25.955Z,95412.97
2023-02-28T00:08:52.740Z,95413.75
2023-02-28T00:11:19.390Z,95410.25
2023-02-28T00:13:47.759Z,95410.06
2023-02-28T00:16:23.721Z,95404.78
2023-02-28T00:18:51.043Z,95407.38
2023-02-28T00:21:18.941Z,95401.47
2023-02-28T00:23:45.583Z,95391.72
2023-02-28T00:26:12.662Z,95399.00
2023-02-28T00:28:39.191Z,95393.06
2023-02-28T00:31:06.083Z,95401.09
2023-02-28T00:33:32.680Z,95400.47
2023-02-28T00:36:08.153Z,95398.97
2023-02-28T00:38:34.753Z,95395.03
2023-02-28T00:41:05.677Z,95397.81
2023-02-28T00:43:37.378Z,95394.84
2023-02-28T00:46:05.001Z,95391.19
2023-02-28T00:48:32.391Z,95393.47
2023-02-28T00:50:59.029Z,95388.28
2023-02-28T00:53:25.663Z,95387.41
2023-02-28T00:55:52.366Z,95392.72
2023-02-28T00:58:19.361Z,95390.44
2023-02-28T01:00:50.095Z,95384.53
2023-02-28T01:03:22.066Z,95393.22
2023-02-28T01:05:48.738Z,95393.03
2023-02-28T01:08:16.154Z,95394.56
2023-02-28T01:10:43.397Z,95392.41
2023-02-28T01:13:09.987Z,95372.47
2023-02-28T01:15:36.625Z,95382.28
2023-02-28T01:18:03.460Z,95390.59
2023-02-28T01:20:30.138Z,95389.59
2023-02-28T01:22:56.756Z,95390.47
2023-02-28T01:25:23.408Z,95386.78
2023-02-28T01:27:49.987Z,95386.78
2023-02-28T01:30:16.783Z,95378.34
2023-02-28T01:32:43.357Z,95396.22
2023-02-28T01:35:10.073Z,95373.84
2023-02-28T01:37:36.935Z,95386.13
2023-02-28T01:40:04.740Z,95387.66
2023-02-28T01:42:31.391Z,95388.44
2023-02-28T01:45:19.869Z,95386.31
2023-02-28T01:47:48.233Z,95385.53
2023-02-28T01:50:21.574Z,95379.34
2023-02-28T01:52:50.332Z,95387.41
2023-02-28T01:55:21.176Z,95380.09
2023-02-28T01:57:51.920Z,95380.28
2023-02-28T02:00:21.727Z,95365.31
2023-02-28T02:02:51.790Z,95377.00
2023-02-28T02:05:24.886Z,95375.56
2023-02-28T02:07:56.530Z,95369.13
2023-02-28T02:10:31.899Z,95367.94
2023-02-28T02:13:16.614Z,95360.91
2023-02-28T02:15:48.615Z,95366.22
2023-02-28T02:18:49.377Z,95364.75
2023-02-28T02:21:40.141Z,95358.78
2023-02-28T02:24:28.841Z,95362.75
2023-02-28T02:27:07.140Z,95360.75
2023-02-28T02:29:51.842Z,95352.97
2023-02-28T02:33:05.194Z,95360.56
2023-02-28T02:35:53.374Z,95364.50
2023-02-28T02:38:39.717Z,95364.88
2023-02-28T02:41:30.832Z,95353.25
2023-02-28T02:44:19.909Z,95370.03
2023-02-28T02:46:49.590Z,95366.81
2023-02-28T02:49:37.429Z,95365.16
2023-02-28T02:52:08.444Z,95356.41
2023-02-28T02:54:38.388Z,95363.22
2023-02-28T02:57:09.671Z,95350.97
2023-02-28T02:59:39.652Z,95352.38
2023-02-28T03:02:09.728Z,95356.16
2023-02-28T03:04:43.283Z,95351.28
2023-02-28T03:07:10.250Z,95343.69
2023-02-28T03:09:36.824Z,95350.50
2023-02-28T03:12:04.678Z,95349.72
2023-02-28T03:14:55.712Z,95356.28
2023-02-28T03:17:47.346Z,95353.22
2023-02-28T03:20:27.255Z,95352.72
2023-02-28T03:23:12.471Z,95350.19
2023-02-28T03:25:57.116Z,95355.31
2023-02-28T03:28:33.120Z,95355.50
2023-02-28T03:31:12.251Z,95355.13
2023-02-28T03:34:05.345Z,95354.75
2023-02-28T03:36:44.673Z,95353.22
2023-02-28T03:39:23.355Z,95348.63
2023-02-28T03:42:01.544Z,95364.81
2023-02-28T03:44:56.515Z,95356.31
2023-02-28T03:47:29.379Z,95357.81
2023-02-28T03:50:08.840Z,95354.31
2023-02-28T03:52:41.103Z,95367.25
2023-02-28T03:55:12.031Z,95363.41
2023-02-28T03:57:45.353Z,95362.22
2023-02-28T04:00:35.905Z,95366.03
2023-02-28T04:03:03.339Z,95373.16
2023-02-28T04:05:31.204Z,95372.84
2023-02-28T04:08:09.032Z,95374.56
2023-02-28T04:10:35.614Z,95370.75
2023-02-28T04:13:02.104Z,95370.91
2023-02-28T04:15:28.692Z,95375.66
2023-02-28T04:17:55.352Z,95383.28
2023-02-28T04:20:22.051Z,95370.44
2023-02-28T04:22:48.652Z,95366.03
2023-02-28T04:25:15.380Z,95378.69
2023-02-28T04:27:41.925Z,95382.19
2023-02-28T04:30:09.211Z,95382.66
2023-02-28T04:32:35.779Z,95378.09
2023-02-28T04:35:02.433Z,95391.03
2023-02-28T04:37:29.884Z,95391.63
2023-02-28T04:39:56.476Z,95391.00
2023-02-28T04:42:23.044Z,95391.88
2023-02-28T04:44:49.561Z,95389.75
2023-02-28T04:47:16.117Z,95395.41
2023-02-28T04:49:42.670Z,95392.50
2023-02-28T04:52:11.065Z,95395.91
2023-02-28T04:54:39.857Z,95400.13
2023-02-28T04:57:07.007Z,95404.00
2023-02-28T04:59:33.977Z,95400.38
2023-02-28T05:02:00.715Z,95390.91
2023-02-28T05:04:27.459Z,95400.78
2023-02-28T05:06:54.056Z,95398.59
2023-02-28T05:09:20.736Z,95394.03
2023-02-28T05:11:47.381Z,95396.69
2023-02-28T05:14:15.192Z,95393.50
2023-02-28T05:16:41.918Z,95398.50
2023-02-28T05:19:08.557Z,95409.91
2023-02-28T05:21:38.017Z,95410.53
2023-02-28T05:24:07.254Z,95412.56
2023-02-28T05:26:39.012Z,95407.78
2023-02-28T05:29:06.130Z,95414.16
2023-02-28T05:31:33.801Z,95410.97
2023-02-28T05:34:00.879Z,95411.78
2023-02-28T05:36:27.450Z,95402.63
2023-02-28T05:38:54.064Z,95406.88
2023-02-28T05:41:21.499Z,95405.97
2023-02-28T05:43:49.615Z,95407.97
2023-02-28T05:46:17.027Z,95405.81
2023-02-28T05:48:47.222Z,95408.56
2023-02-28T05:51:13.870Z,95407.25
2023-02-28T05:53:40.401Z,95408.72
2023-02-28T05:56:07.189Z,95410.84
2023-02-28T05:58:34.492Z,95404.69
2023-02-28T06:01:19.640Z,95401.47
2023-02-28T06:03:46.230Z,95405.75
2023-02-28T06:06:12.809Z,95404.22
2023-02-28T06:08:39.470Z,95407.94
2023-02-28T06:11:06.041Z,95402.59
2023-02-28T06:13:32.848Z,95402.72
2023-02-28T06:16:02.629Z,95408.72
2023-02-28T06:18:29.250Z,95413.31
2023-02-28T06:20:56.335Z,95404.31
2023-02-28T06:23:23.632Z,95402.34
2023-02-28T06:25:50.676Z,95414.50
2023-02-28T06:28:17.281Z,95422.53
2023-02-28T06:30:46.352Z,95428.34
2023-02-28T06:33:13.129Z,95432.19
2023-02-28T06:35:40.025Z,95435.09
2023-02-28T06:38:06.719Z,95429.44
2023-02-28T06:40:36.074Z,95433.81
2023-02-28T06:43:03.489Z,95428.19
2023-02-28T06:45:30.058Z,95431.22
2023-02-28T06:47:56.617Z,95435.63
2023-02-28T06:50:23.227Z,95438.13
2023-02-28T06:52:54.961Z,95434.63
2023-02-28T06:55:21.740Z,95443.13
2023-02-28T06:57:48.284Z,95441.44
2023-02-28T07:00:15.457Z,95443.41
2023-02-28T07:02:42.216Z,95436.63
2023-02-28T07:05:09.149Z,95435.19
2023-02-28T07:07:37.411Z,95456.84
2023-02-28T07:10:04.240Z,95451.09
2023-02-28T07:12:30.845Z,95460.34
2023-02-28T07:14:57.842Z,95461.28
2023-02-28T07:17:24.468Z,95466.31
2023-02-28T07:19:51.027Z,95458.41
2023-02-28T07:22:17.878Z,95461.13
2023-02-28T07:24:44.666Z,95466.56
2023-02-28T07:27:11.413Z,95458.72
2023-02-28T07:29:39.292Z,95459.19
2023-02-28T07:32:05.973Z,95467.06
2023-02-28T07:34:32.674Z,95463.72
2023-02-28T07:36:59.229Z,95462.00
2023-02-28T07:39:25.822Z,95470.81
2023-02-28T07:41:52.418Z,95472.16
2023-02-28T07:44:19.259Z,95458.56
2023-02-28T07:46:45.899Z,95452.78
2023-02-28T07:49:12.499Z,95454.75
2023-02-28T07:51:39.079Z,95446.81
2023-02-28T07:54:05.971Z,95448.19
2023-02-28T07:56:32.916Z,95466.66
2023-02-28T07:58:59.715Z,95474.59
2023-02-28T08:01:26.489Z,95453.97
2023-02-28T08:03:53.095Z,95467.13
2023-02-28T08:06:22.599Z,95472.56
2023-02-28T08:08:49.906Z,95479.66
2023-02-28T08:11:17.490Z,95484.44
2023-02-28T08:13:45.326Z,95482.25
2023-02-28T08:16:13.313Z,95477.81
2023-02-28T08:18:39.881Z,95485.38
2023-02-28T08:21:08.493Z,95470.06
2023-02-28T08:23:35.116Z,95489.16
2023-02-28T08:26:01.969Z,95469.78
2023-02-28T08:28:28.656Z,95473.22
2023-02-28T08:30:55.900Z,95487.53
2023-02-28T08:33:23.853Z,95474.13
2023-02-28T08:35:54.890Z,95486.50
2023-02-28T08:38:21.800Z,95491.03
2023-02-28T08:40:48.399Z,95491.22
2023-02-28T08:43:15.064Z,95493.94
2023-02-28T08:45:41.802Z,95493.72
2023-02-28T08:48:08.401Z,95495.78
2023-02-28T08:50:35.096Z,95494.91
2023-02-28T08:53:01.681Z,95490.47
2023-02-28T08:55:28.245Z,95498.19
2023-02-28T08:57:55.975Z,95496.44
2023-02-28T09:00:23.461Z,95507.53
2023-02-28T09:02:49.982Z,95495.13
2023-02-28T09:05:16.538Z,95501.00
2023-02-28T09:07:43.363Z,95505.53
2023-02-28T09:10:10.975Z,95513.41
2023-02-28T09:12:37.559Z,95507.88
2023-02-28T09:15:04.916Z,95509.84
2023-02-28T09:17:31.799Z,95515.56
2023-02-28T09:19:58.643Z,95517.59
2023-02-28T09:22:25.454Z,95504.53
2023-02-28T09:24:51.997Z,95519.69
2023-02-28T09:27:18.537Z,95506.28
2023-02-28T09:29:45.133Z,95528.00
2023-02-28T09:32:11.761Z,95527.63
2023-02-28T09:34:38.414Z,95521.28
2023-02-28T09:37:05.148Z,95523.06
2023-02-28T09:39:32.759Z,95515.28
2023-02-28T09:41:59.821Z,95523.44
2023-02-28T09:44:45.205Z,95527.66
2023-02-28T09:47:34.381Z,95527.72
2023-02-28T09:50:22.278Z,95525.69
2023-02-28T09:52:53.594Z,95530.47
2023-02-28T09:55:27.563Z,95507.03
2023-02-28T09:57:57.772Z,95515.50
2023-02-28T10:00:31.231Z,95500.31
2023-02-28T10:03:24.601Z,95503.56
2023-02-28T10:06:06.438Z,95502.16
2023-02-28T10:08:46.380Z,95516.59
2023-02-28T10:11:17.641Z,95524.81
2023-02-28T10:14:05.498Z,95515.09
2023-02-28T10:16:40.169Z,95513.22
2023-02-28T10:19:16.163Z,95518.97
2023-02-28T10:21:57.846Z,95518.13
2023-02-28T10:24:35.263Z,95525.72
2023-02-28T10:27:25.950Z,95526.22
2023-02-28T10:29:55.378Z,95529.03
2023-02-28T10:32:25.841Z,95527.34
2023-02-28T10:34:57.953Z,95522.91
2023-02-28T10:37:24.510Z,95542.84
2023-02-28T10:39:51.872Z,95533.53
2023-02-28T10:42:27.032Z,95537.84
2023-02-28T10:45:20.119Z,95539.06
2023-02-28T10:47:56.556Z,95544.38
2023-02-28T10:50:45.373Z,95540.03
2023-02-28T10:53:26.969Z,95533.97
2023-02-28T10:56:17.804Z,95538.97
2023-02-28T10:58:47.442Z,95541.34
2023-02-28T11:01:41.223Z,95552.00
2023-02-28T11:04:41.052Z,95546.56
2023-02-28T11:07:37.350Z,95535.22
2023-02-28T11:10:10.213Z,95531.94
2023-02-28T11:12:51.915Z,95511.97
2023-02-28T11:15:22.139Z,95538.22
2023-02-28T11:18:28.387Z,95517.41
2023-02-28T11:20:59.093Z,95530.81
2023-02-28T11:23:30.041Z,95501.06
2023-02-28T11:26:00.991Z,95526.72
2023-02-28T11:28:36.323Z,95527.00
2023-02-28T11:31:05.999Z,95523.16
2023-02-28T11:33:42.758Z,95519.13
2023-02-28T11:36:15.609Z,95517.22
2023-02-28T11:38:43.075Z,95532.63
2023-02-28T11:41:30.281Z,95512.34
2023-02-28T11:44:20.993Z,95528.28
2023-02-28T11:47:01.870Z,95523.81
2023-02-28T11:49:36.155Z,95514.50
2023-02-28T11:52:09.573Z,95528.69
2023-02-28T11:54:51.317Z,95522.34
2023-02-28T11:57:55.451Z,95524.75
2023-02-28T12:00:52.997Z,95521.38
2023-02-28T12:03:44.422Z,95520.78
2023-02-28T12:06:21.267Z,95516.50
2023-02-28T12:09:05.226Z,95514.13
2023-02-28T12:11:51.629Z,95510.63
2023-02-28T12:14:26.295Z,95513.25
2023-02-28T12:17:18.199Z,95516.97
2023-02-28T12:20:03.471Z,95521.31
2023-02-28T12:22:31.661Z,95508.84
2023-02-28T12:25:37.455Z,95525.91
2023-02-28T12:28:05.158Z,95530.06
2023-02-28T12:30:35.023Z,95504.53
2023-02-28T12:33:08.963Z,95512.94
2023-02-28T12:35:49.405Z,95503.25
2023-02-28T12:38:24.572Z,95511.47
2023-02-28T12:41:00.819Z,95513.47
2023-02-28T12:43:33.776Z,95513.38
2023-02-28T12:46:05.695Z,95506.53
2023-02-28T12:48:47.451Z,95506.72
2023-02-28T12:51:16.903Z,95501.06
2023-02-28T12:54:11.025Z,95506.63
2023-02-28T12:57:08.458Z,95513.03
2023-02-28T12:59:55.369Z,95514.97
2023-02-28T13:02:34.799Z,95515.69
2023-02-28T13:05:26.182Z,95513.06
2023-02-28T13:08:23.549Z,95506.47
2023-02-28T13:10:55.313Z,95500.09
2023-02-28T13:13:27.602Z,95499.97
2023-02-28T13:16:12.044Z,95496.38
2023-02-28T13:18:46.426Z,95501.88
2023-02-28T13:21:31.071Z,95484.34
2023-02-28T13:24:03.763Z,95496.59
2023-02-28T13:26:39.347Z,95496.31
2023-02-28T13:29:12.009Z,95497.34
2023-02-28T13:32:06.862Z,95504.16
2023-02-28T13:34:34.936Z,95502.06
2023-02-28T13:37:23.096Z,95496.28
2023-02-28T13:40:08.036Z,95515.66
2023-02-28T13:42:40.683Z,95517.75
2023-02-28T13:45:08.552Z,95518.09
2023-02-28T13:47:49.967Z,95510.00
2023-02-28T13:50:21.908Z,95517.97
2023-02-28T13:53:03.547Z,95520.91
2023-02-28T13:55:54.126Z,95525.69
2023-02-28T13:58:23.681Z,95523.72
2023-02-28T14:01:08.539Z,95531.66
2023-02-28T14:03:50.668Z,95526.53
2023-02-28T14:06:25.878Z,95534.06
2023-02-28T14:09:05.067Z,95536.91
2023-02-28T14:11:34.503Z,95534.38
2023-02-28T14:14:03.012Z,95537.66
2023-02-28T14:16:51.279Z,95535.94
2023-02-28T14:19:27.186Z,95539.38
2023-02-28T14:22:26.482Z,95543.94
2023-02-28T14:25:23.431Z,95550.88
2023-02-28T14:28:05.429Z,95557.31
2023-02-28T14:30:52.809Z,95546.97
2023-02-28T14:33:31.396Z,95549.78
2023-02-28T14:36:11.258Z,95550.03
2023-02-28T14:39:02.581Z,95554.38
2023-02-28T14:41:39.391Z,95549.66
2023-02-28T14:44:26.607Z,95541.03
2023-02-28T14:46:57.620Z,95547.72
2023-02-28T14:49:33.444Z,95544.41
2023-02-28T14:52:15.695Z,95537.00
2023-02-28T14:54:42.519Z,95541.94
2023-02-28T14:57:24.245Z,95552.47
2023-02-28T15:00:17.378Z,95552.75
2023-02-28T15:02:44.744Z,95557.91
2023-02-28T15:05:20.280Z,95559.72
2023-02-28T15:07:48.864Z,95561.75
2023-02-28T15:10:21.557Z,95574.19
2023-02-28T15:13:13.272Z,95562.13
2023-02-28T15:16:01.136Z,95571.88
2023-02-28T15:18:31.366Z,95575.44
2023-02-28T15:21:02.945Z,95558.59
2023-02-28T15:23:30.913Z,95563.06
2023-02-28T15:25:58.238Z,95573.16
2023-02-28T15:28:25.485Z,95555.09
2023-02-28T15:31:01.963Z,95581.91
2023-02-28T15:33:33.908Z,95581.47
2023-02-28T15:36:21.946Z,95572.06
2023-02-28T15:38:53.266Z,95577.09
2023-02-28T15:41:31.041Z,95571.19
2023-02-28T15:44:38.288Z,95588.16
2023-02-28T15:47:05.985Z,95583.28
2023-02-28T15:49:51.764Z,95574.13
2023-02-28T15:52:27.925Z,95578.09
2023-02-28T15:54:54.911Z,95586.88
2023-02-28T15:57:27.474Z,95584.19
2023-02-28T15:59:57.494Z,95583.81
2023-02-28T16:02:33.182Z,95575.56
2023-02-28T16:05:09.202Z,95588.44
2023-02-28T16:07:41.044Z,95575.53
2023-02-28T16:10:10.729Z,95587.81
2023-02-28T16:12:39.694Z,95601.41
2023-02-28T16:15:21.371Z,95594.88
2023-02-28T16:17:48.801Z,95604.81
2023-02-28T16:20:17.022Z,95602.22
2023-02-28T16:22:44.343Z,95600.69
2023-02-28T16:25:19.891Z,95603.25
2023-02-28T16:27:54.716Z,95596.09
2023-02-28T16:30:24.140Z,95593.81
2023-02-28T16:32:51.493Z,95598.56
2023-02-28T16:35:19.560Z,95597.69
2023-02-28T16:37:46.618Z,95589.59
2023-02-28T16:40:21.970Z,95613.50
2023-02-28T16:42:51.471Z,95612.63
2023-02-28T16:45:24.357Z,95616.13
2023-02-28T16:47:51.424Z,95610.34
2023-02-28T16:50:23.477Z,95624.53
2023-02-28T16:52:53.153Z,95621.53
2023-02-28T16:55:20.060Z,95622.44
2023-02-28T16:58:08.306Z,95628.19
2023-02-28T17:00:34.961Z,95624.38
2023-02-28T17:03:03.751Z,95631.56
2023-02-28T17:05:38.958Z,95637.22
2023-02-28T17:08:06.517Z,95639.97
2023-02-28T17:10:33.146Z,95654.47
2023-02-28T17:13:12.893Z,95642.56
2023-02-28T17:15:41.969Z,95646.22
2023-02-28T17:18:15.060Z,95640.56
2023-02-28T17:20:43.214Z,95648.06
2023-02-28T17:23:10.245Z,95640.44
2023-02-28T17:25:36.805Z,95651.72
2023-02-28T17:28:04.058Z,95648.06
2023-02-28T17:30:30.712Z,95664.53
2023-02-28T17:32:57.623Z,95661.31
2023-02-28T17:35:25.082Z,95657.19
2023-02-28T17:37:52.002Z,95666.03
2023-02-28T17:40:24.217Z,95673.69
2023-02-28T17:42:53.123Z,95668.72
2023-02-28T17:45:20.895Z,95673.28
2023-02-28T17:47:51.163Z,95666.75
2023-02-28T17:50:20.634Z,95670.53
2023-02-28T17:52:47.320Z,95671.72
2023-02-28T17:55:14.086Z,95667.34
2023-02-28T17:57:42.944Z,95682.66
2023-02-28T18:00:16.915Z,95674.88
2023-02-28T18:02:44.725Z,95675.63
2023-02-28T18:05:11.779Z,95670.00
2023-02-28T18:07:39.547Z,95672.75
2023-02-28T18:10:08.062Z,95664.72
2023-02-28T18:12:34.549Z,95671.25
2023-02-28T18:15:01.130Z,95668.66
2023-02-28T18:17:27.717Z,95655.41
2023-02-28T18:19:54.350Z,95646.88
2023-02-28T18:22:21.492Z,95663.31
2023-02-28T18:24:48.130Z,95654.78
2023-02-28T18:27:14.795Z,95643.75
2023-02-28T18:29:41.965Z,95653.34
2023-02-28T18:32:09.897Z,95650.56
2023-02-28T18:34:37.065Z,95661.25
2023-02-28T18:37:04.046Z,95634.09
2023-02-28T18:39:30.886Z,95647.75
2023-02-28T18:41:57.459Z,95646.19
2023-02-28T18:44:24.105Z,95634.88
2023-02-28T18:46:51.010Z,95645.50
2023-02-28T18:49:18.283Z,95650.31
2023-02-28T18:51:46.779Z,95640.41
2023-02-28T18:54:15.269Z,95620.44
2023-02-28T18:56:42.462Z,95641.22
2023-02-28T18:59:09.271Z,95635.94
2023-02-28T19:01:36.436Z,95635.41
2023-02-28T19:04:04.001Z,95633.59
2023-02-28T19:06:31.996Z,95636.25
2023-02-28T19:09:01.151Z,95643.03
2023-02-28T19:11:28.342Z,95636.06
2023-02-28T19:13:55.056Z,95636.50
2023-02-28T19:16:22.632Z,95629.78
2023-02-28T19:18:49.689Z,95618.63
2023-02-28T19:21:18.395Z,95631.28
2023-02-28T19:23:45.202Z,95635.94
2023-02-28T19:26:20.537Z,95630.84
2023-02-28T19:28:47.584Z,95631.56
2023-02-28T19:31:24.149Z,95645.03
2023-02-28T19:33:53.160Z,95630.34
2023-02-28T19:36:20.628Z,95628.41
2023-02-28T19:38:47.452Z,95639.56
2023-02-28T19:41:15.193Z,95626.25
2023-02-28T19:43:42.032Z,95635.69
2023-02-28T19:46:09.810Z,95638.09
2023-02-28T19:48:36.566Z,95637.25
2023-02-28T19:51:09.543Z,95637.41
2023-02-28T19:53:37.928Z,95642.97
2023-02-28T19:56:05.346Z,95634.97
2023-02-28T19:58:33.602Z,95632.84
2023-02-28T20:01:13.135Z,95632.38
2023-02-28T20:03:40.140Z,95621.97
2023-02-28T20:06:09.911Z,95634.84
2023-02-28T20:08:37.992Z,95633.25
2023-02-28T20:11:06.701Z,95636.84
2023-02-28T20:13:33.960Z,95632.72
2023-02-28T20:16:02.580Z,95622.41
2023-02-28T20:18:29.525Z,95628.84
2023-02-28T20:20:56.168Z,95624.88
2023-02-28T20:23:22.694Z,95617.44
2023-02-28T20:25:51.498Z,95628.69
2023-02-28T20:28:19.535Z,95623.44
2023-02-28T20:30:49.055Z,95626.75
2023-02-28T20:33:19.462Z,95621.56
2023-02-28T20:35:46.106Z,95621.91
2023-02-28T20:38:12.796Z,95622.81
2023-02-28T20:40:39.525Z,95625.44
2023-02-28T20:43:06.330Z,95618.34
2023-02-28T20:45:33.077Z,95594.75
2023-02-28T20:47:59.735Z,95618.06
2023-02-28T20:50:26.444Z,95620.78
2023-02-28T20:52:53.511Z,95614.13
2023-02-28T20:55:20.522Z,95606.47
2023-02-28T20:57:47.355Z,95608.09
2023-02-28T21:00:18.471Z,95605.84
2023-02-28T21:02:45.409Z,95615.66
2023-02-28T21:05:12.017Z,95605.25
2023-02-28T21:07:38.600Z,95584.59
2023-02-28T21:10:05.863Z,95607.28
2023-02-28T21:12:33.156Z,95612.13
2023-02-28T21:14:59.736Z,95607.13
2023-02-28T21:17:26.364Z,95602.22
2023-02-28T21:19:52.919Z,95605.59
2023-02-28T21:22:19.421Z,95616.78
2023-02-28T21:24:46.208Z,95610.78
2023-02-28T21:27:12.904Z,95607.28
2023-02-28T21:29:39.604Z,95601.03
2023-02-28T21:32:07.620Z,95605.25
2023-02-28T21:34:34.181Z,95596.75
2023-02-28T21:37:00.856Z,95602.53
2023-02-28T21:39:30.028Z,95603.50
2023-02-28T21:41:57.314Z,95592.78
2023-02-28T21:44:23.986Z,95594.03
2023-02-28T21:46:54.959Z,95595.25
2023-02-28T21:49:21.742Z,95590.66
2023-02-28T21:51:48.593Z,95586.41
2023-02-28T21:54:15.229Z,95600.56
2023-02-28T21:56:41.836Z,95592.47
2023-02-28T21:59:09.717Z,95594.63
2023-02-28T22:01:44.508Z,95581.53
2023-02-28T22:04:23.528Z,95587.78
2023-02-28T22:06:57.121Z,95585.19
2023-02-28T22:09:23.760Z,95586.84
2023-02-28T22:11:50.712Z,95588.19
2023-02-28T22:14:17.684Z,95591.91
2023-02-28T22:16:51.826Z,95590.06
2023-02-28T22:19:20.434Z,95588.66
2023-02-28T22:21:47.761Z,95587.81
2023-02-28T22:24:17.914Z,95590.97
2023-02-28T22:26:45.007Z,95591.13
2023-02-28T22:29:11.638Z,95583.34
2023-02-28T22:31:38.249Z,95570.69
2023-02-28T22:34:07.992Z,95585.47
2023-02-28T22:36:35.160Z,95576.13
2023-02-28T22:39:01.794Z,95571.53
2023-02-28T22:41:29.703Z,95584.38
2023-02-28T22:43:59.288Z,95582.88
2023-02-28T22:46:28.020Z,95574.84
2023-02-28T22:48:55.077Z,95578.88
2023-02-28T22:51:25.408Z,95577.78
2023-02-28T22:53:53.653Z,95574.72
2023-02-28T22:56:22.132Z,95577.31
2023-02-28T22:58:53.993Z,95580.97
2023-02-28T23:01:22.666Z,95577.66
2023-02-28T23:03:50.191Z,95585.91
2023-02-28T23:06:26.166Z,95576.59
2023-02-28T23:08:55.672Z,95580.53
2023-02-28T23:11:25.975Z,95572.59
2023-02-28T23:13:58.804Z,95576.38
2023-02-28T23:16:29.940Z,95577.44
2023-02-28T23:18:57.832Z,95580.81
2023-02-28T23:21:24.809Z,95568.81
2023-02-28T23:23:51.585Z,95576.84
2023-02-28T23:26:18.508Z,95567.88
2023-02-28T23:28:45.812Z,95574.44
2023-02-28T23:31:12.471Z,95571.63
2023-02-28T23:33:40.276Z,95572.72
2023-02-28T23:36:09.825Z,95569.50
2023-02-28T23:38:36.560Z,95571.97
2023-02-28T23:41:06.906Z,95565.59
2023-02-28T23:43:33.568Z,95562.94
2023-02-28T23:46:00.218Z,95546.41
2023-02-28T23:48:27.631Z,95569.53
2023-02-28T23:50:58.101Z,95569.16
2023-02-28T23:53:25.086Z,95568.06
2023-02-28T23:55:51.927Z,95570.22
2023-02-28T23:58:18.653Z,95568.00
